Time;durP1;ratioP1;P1;durP2;ratioP2;P2;SDS_P1;SDS_P2;PMS_P1;PMS_P2;Temp;Humidity;BMP_temperature;BMP_pressure;BME280_temperature;BME280_humidity;BME280_pressure;Samples;Min_cycle;Max_cycle;Signal;HPM_P1;HPM_P2
2024/02/19 00:00:30;;;;;;;;;40.00;32.00;;;;;4.46;100.00;99618.19;6019959;29;97137;-58
2024/02/19 00:03:33;;;;;;;;;38.00;31.80;;;;;4.38;100.00;99613.69;6019639;29;96573;-58
2024/02/19 00:06:37;;;;;;;;;40.75;33.75;;;;;4.47;100.00;99610.03;6020439;29;96403;-58
2024/02/19 00:09:40;;;;;;;;;41.40;33.00;;;;;4.51;100.00;99615.88;6020434;29;96389;-58
2024/02/19 00:12:43;;;;;;;;;37.40;33.00;;;;;4.57;100.00;99604.53;6020116;29;96141;-58
2024/02/19 00:15:48;;;;;;;;;41.00;35.00;;;;;4.59;100.00;99598.03;6024487;29;96549;-53
2024/02/19 00:18:51;;;;;;;;;41.60;34.00;;;;;4.62;100.00;99591.53;6025513;29;96565;-53
2024/02/19 00:21:54;;;;;;;;;42.80;35.60;;;;;4.64;100.00;99586.88;6024977;29;96938;-53
2024/02/19 00:24:58;;;;;;;;;44.25;35.00;;;;;4.66;100.00;99587.50;6024807;29;96343;-53
2024/02/19 00:28:02;;;;;;;;;44.00;35.00;;;;;4.57;100.00;99585.84;6024397;29;96350;-53
2024/02/19 00:31:06;;;;;;;;;44.00;36.00;;;;;4.59;100.00;99578.50;6007021;29;98896;-53
2024/02/19 00:34:09;;;;;;;;;41.50;34.00;;;;;4.61;100.00;99573.81;6008760;29;96342;-53
2024/02/19 00:37:13;;;;;;;;;42.20;35.00;;;;;4.61;100.00;99572.00;6007635;29;96952;-53
2024/02/19 00:40:18;;;;;;;;;44.00;35.50;;;;;4.68;100.00;99569.50;6024162;29;96355;-53
2024/02/19 00:43:22;;;;;;;;;39.40;33.00;;;;;4.72;100.00;99570.81;6040822;28;96511;-53
2024/02/19 00:46:26;;;;;;;;;38.60;32.00;;;;;4.72;100.00;99570.81;6032738;28;96341;-54
2024/02/19 00:49:29;;;;;;;;;37.80;33.00;;;;;4.74;100.00;99564.28;6024068;29;96573;-53
2024/02/19 00:52:33;;;;;;;;;35.00;31.60;;;;;4.65;100.00;99546.63;6024932;29;96387;-53
2024/02/19 00:55:36;;;;;;;;;36.00;32.25;;;;;4.75;100.00;99554.44;6025073;29;96395;-52
2024/02/19 00:58:39;;;;;;;;;39.40;33.00;;;;;4.76;100.00;99554.28;6024064;29;96367;-53
2024/02/19 01:01:44;;;;;;;;;42.20;34.40;;;;;4.70;100.00;99533.59;6011148;29;96275;-53
2024/02/19 01:04:49;;;;;;;;;37.60;33.00;;;;;4.69;100.00;99531.91;6021817;29;96857;-53
2024/02/19 01:07:52;;;;;;;;;43.40;34.40;;;;;4.75;100.00;99554.44;6008292;29;96863;-53
2024/02/19 01:10:55;;;;;;;;;38.25;32.25;;;;;4.73;100.00;99537.78;6023531;29;96238;-53
2024/02/19 01:13:59;;;;;;;;;36.80;32.80;;;;;4.74;100.00;99542.94;6007833;29;96764;-54
2024/02/19 01:17:04;;;;;;;;;42.40;34.20;;;;;4.72;100.00;99520.06;6008311;29;96843;-53
2024/02/19 01:20:09;;;;;;;;;36.50;31.00;;;;;4.67;100.00;99519.75;6024529;29;96274;-51
2024/02/19 01:23:12;;;;;;;;;45.20;35.60;;;;;4.63;100.00;99513.91;6024518;29;96451;-54
2024/02/19 01:26:20;;;;;;;;;39.20;33.60;;;;;4.63;100.00;99511.25;6043546;28;97303;-58
2024/02/19 01:29:24;;;;;;;;;36.00;32.00;;;;;4.58;100.00;99516.25;6049010;28;96279;-56
2024/02/19 01:32:28;;;;;;;;;42.00;33.00;;;;;4.56;100.00;99506.72;6033700;28;96822;-56
2024/02/19 01:35:32;;;;;;;;;41.33;35.00;;;;;4.55;100.00;99500.53;6048337;28;96462;-58
2024/02/19 01:38:36;;;;;;;;;44.60;34.00;;;;;4.51;100.00;99496.56;6047142;28;96314;-57
2024/02/19 01:41:39;;;;;;;;;40.20;33.20;;;;;4.48;100.00;99504.06;6030587;29;96718;-55
2024/02/19 01:44:42;;;;;;;;;42.80;35.20;;;;;4.41;100.00;99487.03;6035917;29;98486;-57
2024/02/19 01:47:47;;;;;;;;;40.25;34.00;;;;;4.40;100.00;99480.06;6047803;28;96371;-57
2024/02/19 01:50:50;;;;;;;;;40.25;33.00;;;;;4.35;100.00;99478.69;6046156;29;96366;-57
2024/02/19 01:53:55;;;;;;;;;43.00;35.00;;;;;4.31;100.00;99480.03;6047668;29;96359;-57
2024/02/19 01:56:58;;;;;;;;;42.20;34.60;;;;;4.27;100.00;99472.53;6047801;29;96149;-57
2024/02/19 02:00:10;;;;;;;;;45.00;35.00;;;;;4.24;100.00;99475.56;6031419;29;96564;-57
2024/02/19 02:03:17;;;;;;;;;41.40;35.00;;;;;4.23;100.00;99476.53;6047538;29;96242;-55
2024/02/19 02:06:22;;;;;;;;;43.60;35.40;;;;;4.21;100.00;99471.38;6024572;29;97019;-58
2024/02/19 02:09:26;;;;;;;;;42.25;34.50;;;;;4.08;100.00;99455.03;6017774;29;96304;-58
2024/02/19 02:12:29;;;;;;;;;45.40;36.00;;;;;4.14;100.00;99458.88;6046901;28;96219;-57
2024/02/19 02:15:32;;;;;;;;;42.00;35.00;;;;;4.10;100.00;99452.22;6015217;28;96835;-58
2024/02/19 02:18:37;;;;;;;;;41.80;35.40;;;;;4.04;100.00;99443.03;6047095;29;96318;-58
2024/02/19 02:21:41;;;;;;;;;44.00;34.60;;;;;4.10;100.00;99447.72;6048492;28;96535;-59
2024/02/19 02:24:44;;;;;;;;;46.60;36.20;;;;;4.10;100.00;99439.69;6034768;29;96673;-57
2024/02/19 02:27:49;;;;;;;;;41.00;34.20;;;;;4.05;100.00;99436.69;6034960;29;96704;-57
2024/02/19 02:30:53;;;;;;;;;45.00;37.00;;;;;4.04;100.00;99432.34;6050731;29;96524;-58
2024/02/19 02:33:56;;;;;;;;;45.60;37.40;;;;;4.01;100.00;99430.00;6050497;29;96422;-58
2024/02/19 02:36:59;;;;;;;;;42.00;35.00;;;;;4.04;100.00;99434.19;6021045;29;96278;-57
2024/02/19 02:40:03;;;;;;;;;45.00;35.60;;;;;4.05;100.00;99417.19;6021573;29;96538;-57
2024/02/19 02:43:07;;;;;;;;;45.00;35.40;;;;;4.04;100.00;99416.34;6021646;29;96316;-57
2024/02/19 02:46:11;;;;;;;;;47.40;36.40;;;;;3.98;100.00;99417.00;6021808;29;96555;-58
2024/02/19 02:49:14;;;;;;;;;41.60;35.60;;;;;3.56;100.00;99352.34;6003999;29;96618;-57
2024/02/19 02:52:17;;;;;;;;;44.40;36.00;;;;;3.92;100.00;99391.81;6002610;29;98518;-57
2024/02/19 02:55:21;;;;;;;;;45.00;35.80;;;;;3.92;100.00;99383.81;6019378;29;96398;-57
2024/02/19 02:58:25;;;;;;;;;40.40;35.00;;;;;3.99;100.00;99377.81;6020841;29;96372;-57
2024/02/19 03:01:30;;;;;;;;;42.00;34.80;;;;;3.99;100.00;99375.16;6021667;29;96548;-57
2024/02/19 03:04:34;;;;;;;;;46.40;37.00;;;;;4.04;100.00;99367.50;6004236;29;98061;-57
2024/02/19 03:07:38;;;;;;;;;41.40;34.80;;;;;4.13;100.00;99361.13;6012754;29;97053;-57
2024/02/19 03:10:43;;;;;;;;;42.60;34.60;;;;;4.15;100.00;99351.13;6021434;29;96476;-57
2024/02/19 03:13:49;;;;;;;;;41.80;34.60;;;;;4.16;100.00;99355.44;6021156;29;97059;-57
2024/02/19 03:16:52;;;;;;;;;42.20;35.20;;;;;4.14;100.00;99350.31;6021834;29;96410;-57
2024/02/19 03:19:55;;;;;;;;;46.00;37.00;;;;;4.15;100.00;99338.63;6020623;29;96649;-57
2024/02/19 03:22:58;;;;;;;;;39.60;33.60;;;;;4.24;100.00;99336.78;6021282;29;96395;-58
2024/02/19 03:26:02;;;;;;;;;43.80;36.00;;;;;4.30;100.00;99326.22;6021429;29;96395;-57
2024/02/19 03:29:12;;;;;;;;;47.00;38.20;;;;;4.28;100.00;99332.75;6020346;29;96637;-57
2024/02/19 03:32:17;;;;;;;;;43.40;33.80;;;;;4.35;100.00;99320.38;6004872;29;96509;-57
2024/02/19 03:35:21;;;;;;;;;46.60;36.00;;;;;4.48;100.00;99326.03;6018660;29;96492;-56
2024/02/19 03:38:24;;;;;;;;;44.40;36.00;;;;;4.50;100.00;99324.00;6010120;28;96647;-57
2024/02/19 03:41:27;;;;;;;;;45.25;36.00;;;;;4.73;100.00;99305.41;6021098;28;97113;-57
2024/02/19 03:44:32;;;;;;;;;42.75;35.75;;;;;4.84;100.00;99317.53;6021883;29;96429;-52
2024/02/19 03:47:36;;;;;;;;;42.60;34.60;;;;;4.97;100.00;99315.97;6025315;29;96371;-52
2024/02/19 03:50:39;;;;;;;;;45.80;36.80;;;;;4.88;100.00;99306.31;6007871;29;96286;-53
2024/02/19 03:53:42;;;;;;;;;45.00;36.00;;;;;4.97;100.00;99296.41;6024772;29;96654;-53
2024/02/19 03:56:45;;;;;;;;;47.00;37.60;;;;;4.99;100.00;99279.19;6023800;29;96494;-53
2024/02/19 03:59:50;;;;;;;;;44.60;36.20;;;;;5.22;100.00;99303.28;6007037;29;98547;-53
2024/02/19 04:02:53;;;;;;;;;45.00;36.00;;;;;5.26;100.00;99304.59;6024682;29;97006;-53
2024/02/19 04:05:56;;;;;;;;;49.60;39.60;;;;;5.41;100.00;99304.66;6002622;29;96371;-53
2024/02/19 04:09:00;;;;;;;;;46.00;37.00;;;;;5.40;100.00;99285.09;6001860;29;96895;-53
2024/02/19 04:12:04;;;;;;;;;49.00;39.00;;;;;5.33;100.00;99283.28;6002693;29;96968;-53
2024/02/19 04:15:09;;;;;;;;;49.00;38.00;;;;;5.24;100.00;99286.03;6001960;29;96275;-54
2024/02/19 04:18:12;;;;;;;;;47.00;38.00;;;;;5.33;100.00;99273.44;6002029;29;96295;-53
2024/02/19 04:21:15;;;;;;;;;47.60;39.00;;;;;5.24;100.00;99245.94;6001843;29;96772;-53
2024/02/19 04:24:19;;;;;;;;;49.00;38.00;;;;;5.29;100.00;99269.47;6001582;29;97218;-53
2024/02/19 04:27:23;;;;;;;;;49.40;41.00;;;;;5.24;100.00;99267.31;6002092;29;96256;-53
2024/02/19 04:30:27;;;;;;;;;50.40;39.60;;;;;5.15;100.00;99236.31;6002273;29;96319;-54
2024/02/19 04:33:31;;;;;;;;;44.00;36.00;;;;;5.30;100.00;99254.25;6001491;29;97412;-53
2024/02/19 04:36:35;;;;;;;;;47.00;38.00;;;;;5.36;100.00;99249.03;6000481;29;96386;-53
2024/02/19 04:39:38;;;;;;;;;50.00;40.00;;;;;5.35;100.00;99250.03;6002219;29;96598;-52
2024/02/19 04:42:41;;;;;;;;;51.80;41.00;;;;;5.42;100.00;99245.66;6001925;29;96383;-53
2024/02/19 04:45:46;;;;;;;;;49.40;39.60;;;;;5.44;100.00;99240.94;6000145;29;96966;-56
2024/02/19 04:48:49;;;;;;;;;49.40;40.00;;;;;5.42;100.00;99236.78;6001345;29;96673;-54
2024/02/19 04:51:52;;;;;;;;;52.00;41.00;;;;;5.38;100.00;99233.63;6000436;29;96406;-53
2024/02/19 04:54:56;;;;;;;;;50.50;40.00;;;;;5.43;100.00;99235.75;5999731;29;96972;-58
2024/02/19 04:57:59;;;;;;;;;52.00;42.00;;;;;5.37;100.00;99229.31;5994906;29;96462;-58
2024/02/19 05:01:04;;;;;;;;;50.00;40.00;;;;;5.35;100.00;99211.78;5994615;29;96902;-57
2024/02/19 05:04:07;;;;;;;;;49.80;40.00;;;;;5.29;100.00;99218.66;6003408;29;96513;-58
2024/02/19 05:07:10;;;;;;;;;53.00;41.20;;;;;5.17;100.00;99215.63;6003034;29;96438;-58
2024/02/19 05:10:14;;;;;;;;;49.00;40.00;;;;;5.24;100.00;99210.34;6019064;29;97057;-58
2024/02/19 05:13:18;;;;;;;;;48.80;39.40;;;;;5.34;100.00;99210.09;6007900;29;96302;-58
2024/02/19 05:16:22;;;;;;;;;51.20;41.60;;;;;5.21;100.00;99159.94;6019037;29;97508;-58
2024/02/19 05:19:25;;;;;;;;;50.00;38.00;;;;;5.55;100.00;99196.88;6017070;29;96548;-58
2024/02/19 05:22:29;;;;;;;;;49.20;39.20;;;;;5.61;100.00;99201.50;6018191;29;96823;-58
2024/02/19 05:25:32;;;;;;;;;47.50;39.00;;;;;5.72;100.00;99197.56;6019200;29;96661;-57
2024/02/19 05:28:36;;;;;;;;;51.75;40.00;;;;;5.81;100.00;99193.78;6019410;29;96439;-58
2024/02/19 05:31:41;;;;;;;;;47.40;39.00;;;;;5.89;100.00;99180.34;6018726;29;98290;-57
2024/02/19 05:34:44;;;;;;;;;45.80;37.60;;;;;5.93;100.00;99184.31;6018735;29;96264;-57
2024/02/19 05:37:48;;;;;;;;;46.60;38.60;;;;;6.00;100.00;99182.56;6018809;29;96457;-57
2024/02/19 05:40:51;;;;;;;;;51.75;40.50;;;;;6.01;100.00;99181.56;6002094;29;97846;-58
2024/02/19 05:43:56;;;;;;;;;48.00;39.20;;;;;6.08;100.00;99177.94;6019237;29;96658;-57
2024/02/19 05:47:00;;;;;;;;;50.00;40.00;;;;;6.11;100.00;99173.25;6018839;29;96424;-57
2024/02/19 05:50:04;;;;;;;;;48.80;39.00;;;;;6.13;100.00;99171.19;6017789;29;96537;-57
2024/02/19 05:53:08;;;;;;;;;51.20;40.40;;;;;5.97;100.00;99164.19;6018838;29;96329;-57
2024/02/19 05:56:11;;;;;;;;;47.75;38.00;;;;;5.79;100.00;99167.22;6018788;29;96385;-58
2024/02/19 05:59:15;;;;;;;;;50.00;40.00;;;;;5.72;100.00;99160.91;6022602;29;96880;-57
2024/02/19 06:02:20;;;;;;;;;49.25;39.50;;;;;5.58;100.00;99167.94;6022952;29;96410;-57
2024/02/19 06:05:23;;;;;;;;;45.20;38.00;;;;;5.46;100.00;99164.06;6019888;29;96741;-57
2024/02/19 06:08:26;;;;;;;;;51.40;40.60;;;;;5.52;100.00;99157.16;6017230;29;96706;-57
2024/02/19 06:11:31;;;;;;;;;47.00;39.00;;;;;5.64;100.00;99155.66;6019920;29;96643;-57
2024/02/19 06:14:34;;;;;;;;;50.25;41.00;;;;;5.49;100.00;99125.41;6018154;29;97415;-57
2024/02/19 06:17:39;;;;;;;;;47.00;38.00;;;;;5.67;100.00;99145.44;6019290;28;96295;-57
2024/02/19 06:20:42;;;;;;;;;50.00;39.00;;;;;5.79;100.00;99147.66;6016504;28;96481;-57
2024/02/19 06:23:45;;;;;;;;;47.00;38.00;;;;;5.93;100.00;99147.69;6029314;28;96466;-57
2024/02/19 06:26:48;;;;;;;;;46.00;37.00;;;;;6.02;100.00;99140.38;6016481;28;96422;-57
2024/02/19 06:29:52;;;;;;;;;45.00;38.00;;;;;6.15;100.00;99145.91;6008416;28;97086;-57
2024/02/19 06:32:56;;;;;;;;;45.67;38.67;;;;;6.25;100.00;99140.25;6012796;28;97413;-57
2024/02/19 06:35:59;;;;;;;;;45.50;36.00;;;;;6.35;100.00;99141.59;6013234;28;96265;-58
2024/02/19 06:39:03;;;;;;;;;45.00;38.00;;;;;6.40;100.00;99146.41;6018629;29;96529;-57
2024/02/19 06:42:06;;;;;;;;;48.00;38.20;;;;;6.44;100.00;99147.69;6019324;29;96475;-57
2024/02/19 06:45:10;;;;;;;;;48.80;38.80;;;;;6.44;100.00;99151.19;6020106;28;96539;-57
2024/02/19 06:48:15;;;;;;;;;47.00;37.40;;;;;6.50;100.00;99149.59;6013459;28;96775;-57
2024/02/19 06:51:18;;;;;;;;;47.50;38.75;;;;;6.52;100.00;99155.59;5992673;29;96278;-57
2024/02/19 06:54:21;;;;;;;;;49.00;40.50;;;;;6.56;100.00;99145.34;6020883;29;96939;-57
2024/02/19 06:57:27;;;;;;;;;48.00;39.00;;;;;6.58;100.00;99138.78;6021642;29;96661;-58
2024/02/19 07:00:30;;;;;;;;;46.60;38.40;;;;;6.57;100.00;99138.97;6028717;28;96393;-57
2024/02/19 07:03:34;;;;;;;;;47.25;39.00;;;;;6.62;100.00;99134.69;6022333;28;97023;-57
2024/02/19 07:06:38;;;;;;;;;47.00;39.00;;;;;6.52;100.00;99123.47;6021348;29;96372;-57
2024/02/19 07:09:42;;;;;;;;;45.75;38.00;;;;;6.59;100.00;99140.44;6013517;28;96119;-59
2024/02/19 07:12:45;;;;;;;;;46.40;37.60;;;;;6.57;100.00;99133.59;6021528;28;96820;-57
2024/02/19 07:15:48;;;;;;;;;47.40;38.00;;;;;6.61;100.00;99138.38;6024707;29;96421;-52
2024/02/19 07:18:53;;;;;;;;;47.00;38.00;;;;;6.64;100.00;99127.31;6008882;29;99052;-52
2024/02/19 07:21:56;;;;;;;;;47.20;38.00;;;;;6.77;100.00;99126.59;6002077;29;99479;-52
2024/02/19 07:25:00;;;;;;;;;47.60;39.00;;;;;6.76;100.00;99117.72;6007257;28;96746;-52
2024/02/19 07:28:20;;;;;;;;;50.00;40.00;;;;;6.91;100.00;99125.69;6013323;29;96299;-53
2024/02/19 07:31:23;;;;;;;;;47.40;36.80;;;;;6.93;100.00;99116.47;6026018;29;96293;-53
2024/02/19 07:34:28;;;;;;;;;44.00;36.60;;;;;6.82;100.00;99116.97;6025431;29;96397;-53
2024/02/19 07:37:31;;;;;;;;;45.00;37.20;;;;;7.00;100.00;99110.31;6025817;29;96421;-52
2024/02/19 07:40:34;;;;;;;;;45.50;35.00;;;;;7.15;100.00;99117.25;6025876;29;96429;-52
2024/02/19 07:43:38;;;;;;;;;43.00;36.00;;;;;7.22;100.00;99111.94;6009033;29;96280;-52
2024/02/19 07:46:41;;;;;;;;;45.25;36.25;;;;;7.29;100.00;99110.13;5993321;29;96718;-53
2024/02/19 07:49:46;;;;;;;;;45.80;37.80;;;;;7.22;100.00;99071.72;6025108;29;96269;-52
2024/02/19 07:52:49;;;;;;;;;46.00;37.80;;;;;7.44;100.00;99101.97;6007883;29;96759;-53
2024/02/19 07:56:03;;;;;;;;;46.80;37.40;;;;;7.49;100.00;99094.16;6008388;29;96978;-53
2024/02/19 07:59:06;;;;;;;;;47.40;37.60;;;;;7.53;100.00;99090.91;6025760;29;96859;-53
2024/02/19 08:02:11;;;;;;;;;48.00;38.50;;;;;7.55;100.00;99098.75;6025001;29;96403;-54
2024/02/19 08:05:16;;;;;;;;;47.60;37.40;;;;;7.56;100.00;99081.63;6022488;29;96416;-54
2024/02/19 08:08:21;;;;;;;;;48.40;38.40;;;;;7.62;100.00;99087.06;6025916;29;96937;-54
2024/02/19 08:11:24;;;;;;;;;49.00;38.00;;;;;7.75;100.00;99084.44;6024970;29;96534;-54
2024/02/19 08:14:27;;;;;;;;;49.60;39.00;;;;;7.91;100.00;99085.97;6007798;29;96274;-53
2024/02/19 08:17:31;;;;;;;;;48.60;40.00;;;;;8.10;100.00;99079.00;6025152;29;96725;-54
2024/02/19 08:20:35;;;;;;;;;48.00;39.00;;;;;8.16;100.00;99054.03;6023406;29;96817;-54
2024/02/19 08:23:38;;;;;;;;;49.75;39.25;;;;;8.46;100.00;99081.41;6015858;29;96653;-54
2024/02/19 08:26:42;;;;;;;;;47.33;38.33;;;;;8.58;100.00;99077.94;6020453;29;96533;-57
2024/02/19 08:29:45;;;;;;;;;49.00;39.80;;;;;8.61;100.00;99061.38;6019739;29;97311;-57
2024/02/19 08:32:48;;;;;;;;;48.67;38.00;;;;;8.82;100.00;99063.06;6015261;28;97533;-57
2024/02/19 08:35:54;;;;;;;;;46.80;38.00;;;;;9.05;100.00;99068.84;6014672;28;96618;-55
2024/02/19 08:38:57;;;;;;;;;51.60;39.60;;;;;9.26;100.00;99057.03;6019100;29;96570;-56
2024/02/19 08:42:00;;;;;;;;;48.75;39.00;;;;;9.45;100.00;99061.56;6019950;29;96293;-56
2024/02/19 08:45:05;;;;;;;;;50.80;40.00;;;;;9.61;100.00;99054.91;6003054;29;97596;-56
2024/02/19 08:48:08;;;;;;;;;47.00;39.20;;;;;9.78;100.00;99053.38;6019599;29;96512;-56
2024/02/19 08:51:14;;;;;;;;;45.40;35.60;;;;;9.96;100.00;99050.03;6019789;29;96445;-56
2024/02/19 08:54:17;;;;;;;;;45.00;38.00;;;;;10.13;100.00;99045.78;6018861;28;97435;-56
2024/02/19 08:57:20;;;;;;;;;44.40;36.00;;;;;10.32;100.00;99054.84;6019458;29;96293;-56
2024/02/19 09:00:24;;;;;;;;;49.60;40.40;;;;;10.46;100.00;99052.91;6010584;29;97616;-56
2024/02/19 09:03:27;;;;;;;;;46.75;39.00;;;;;10.57;100.00;99050.34;6003489;29;96453;-56
2024/02/19 09:06:32;;;;;;;;;48.40;39.00;;;;;10.68;100.00;99038.84;6019086;29;96399;-56
2024/02/19 09:09:35;;;;;;;;;44.80;37.00;;;;;10.83;100.00;99038.53;6019609;29;96551;-56
2024/02/19 09:12:39;;;;;;;;;46.60;39.60;;;;;10.94;100.00;99037.84;6019025;29;96299;-56
2024/02/19 09:15:42;;;;;;;;;51.60;39.60;;;;;11.00;100.00;99033.41;6019063;29;96714;-56
2024/02/19 09:18:45;;;;;;;;;48.00;39.00;;;;;11.01;100.00;99038.59;6018090;29;96294;-56
2024/02/19 09:21:50;;;;;;;;;46.20;38.20;;;;;11.05;100.00;99037.09;6018696;29;96099;-56
2024/02/19 09:24:55;;;;;;;;;49.40;40.00;;;;;11.09;100.00;99024.81;6018525;29;96262;-56
2024/02/19 09:27:58;;;;;;;;;53.00;42.00;;;;;11.18;100.00;99036.16;6019404;29;96583;-56
2024/02/19 09:31:01;;;;;;;;;48.50;39.00;;;;;11.27;100.00;99029.44;6018967;29;96418;-57
2024/02/19 09:34:07;;;;;;;;;50.00;39.40;;;;;11.15;100.00;99034.72;6017997;29;96555;-56
2024/02/19 09:37:12;;;;;;;;;48.00;39.00;;;;;11.07;100.00;99032.31;6024182;29;96781;-57
2024/02/19 09:40:17;;;;;;;;;52.00;40.00;;;;;10.99;100.00;99021.81;6020969;29;96667;-57
2024/02/19 09:43:21;;;;;;;;;47.00;39.00;;;;;10.96;100.00;99024.09;6023637;29;96267;-57
2024/02/19 09:46:24;;;;;;;;;48.00;38.60;;;;;10.89;100.00;99016.09;6023463;29;96754;-57
2024/02/19 09:49:30;;;;;;;;;49.50;40.00;;;;;10.94;100.00;99018.13;6023233;29;96540;-56
2024/02/19 09:52:37;;;;;;;;;45.75;36.75;;;;;11.00;100.00;99011.81;6023539;29;96294;-57
2024/02/19 09:55:40;;;;;;;;;50.33;39.67;;;;;11.10;100.00;99006.75;6023708;29;97309;-56
2024/02/19 09:58:44;;;;;;;;;47.20;38.00;;;;;11.20;100.00;99012.47;6023035;29;96281;-57
2024/02/19 10:01:47;;;;;;;;;51.00;41.00;;;;;11.29;100.00;99001.16;6022066;29;96380;-57
2024/02/19 10:04:50;;;;;;;;;47.40;39.00;;;;;11.50;100.00;99017.97;6017196;28;96923;-56
2024/02/19 10:07:59;;;;;;;;;46.40;37.80;;;;;11.51;100.00;98985.34;6022141;29;96308;-57
2024/02/19 10:11:08;;;;;;;;;45.20;38.00;;;;;11.83;100.00;99006.81;5990114;29;97095;-56
2024/02/19 10:14:11;;;;;;;;;48.60;39.00;;;;;11.99;100.00;99001.63;6022720;29;96551;-56
2024/02/19 10:17:22;;;;;;;;;50.40;40.00;;;;;12.10;100.00;99000.84;6022979;29;96581;-57
2024/02/19 10:20:28;;;;;;;;;45.00;38.00;;;;;12.25;100.00;98986.94;6023013;29;96330;-56
2024/02/19 10:23:33;;;;;;;;;48.20;40.00;;;;;12.47;100.00;98987.22;6022768;29;96311;-56
2024/02/19 10:26:37;;;;;;;;;48.20;39.20;;;;;12.68;100.00;98985.84;6022802;29;96464;-57
2024/02/19 10:29:40;;;;;;;;;46.40;36.20;;;;;12.86;100.00;98983.03;6022823;29;96416;-57
2024/02/19 10:32:45;;;;;;;;;45.40;38.00;;;;;12.91;100.00;98980.47;6022292;29;97023;-56
2024/02/19 10:35:50;;;;;;;;;47.40;36.40;;;;;13.01;100.00;98986.94;6022824;29;96439;-57
2024/02/19 10:38:55;;;;;;;;;43.25;35.00;;;;;13.27;100.00;98974.03;6018637;28;96436;-57
2024/02/19 10:41:58;;;;;;;;;44.00;34.75;;;;;13.47;100.00;98971.75;5998738;29;96577;-57
2024/02/19 10:45:02;;;;;;;;;45.20;36.80;;;;;13.44;100.00;98942.44;6004162;29;96358;-58
2024/02/19 10:48:08;;;;;;;;;21.25;20.25;;;;;13.83;100.00;98949.75;6047417;29;96400;-58
2024/02/19 10:51:13;;;;;;;;;12.75;10.00;;;;;14.06;100.00;98964.28;6049792;29;96332;-60
2024/02/19 10:54:19;;;;;;;;;6.40;5.00;;;;;14.24;100.00;98955.94;6049624;29;96364;-58
2024/02/19 10:57:22;;;;;;;;;8.00;8.00;;;;;14.67;100.00;98945.34;6050905;28;96449;-58
2024/02/19 11:00:27;;;;;;;;;9.00;8.00;;;;;15.35;100.00;98948.78;6050070;29;96343;-58
2024/02/19 11:03:31;;;;;;;;;8.20;7.20;;;;;16.47;100.00;98943.56;6046807;28;97994;-58
2024/02/19 11:06:39;;;;;;;;;7.00;7.00;;;;;17.08;100.00;98935.91;6033525;28;96358;-59
2024/02/19 11:09:44;;;;;;;;;7.40;6.00;;;;;19.11;100.00;98923.66;6048338;29;96646;-59
2024/02/19 11:12:48;;;;;;;;;7.00;7.00;;;;;20.55;100.00;98910.69;6042716;29;96644;-59
2024/02/19 11:15:53;;;;;;;;;5.50;5.00;;;;;20.72;100.00;98939.31;6048753;29;96804;-60
2024/02/19 11:18:59;;;;;;;;;5.00;5.00;;;;;20.04;100.00;98932.06;6048273;29;96335;-60
2024/02/19 11:22:04;;;;;;;;;5.00;5.00;;;;;19.20;100.00;98914.63;6048424;29;96305;-59
2024/02/19 11:25:11;;;;;;;;;5.50;5.00;;;;;18.66;100.00;98919.88;6049021;29;96371;-61
2024/02/19 11:28:14;;;;;;;;;6.00;4.80;;;;;17.87;100.00;98908.53;6049090;29;96882;-59
2024/02/19 11:31:18;;;;;;;;;5.00;5.00;;;;;17.41;100.00;98907.50;6049226;29;96392;-59
2024/02/19 11:34:21;;;;;;;;;3.60;3.00;;;;;16.92;100.00;98906.94;6049028;29;96234;-58
2024/02/19 11:37:24;;;;;;;;;4.75;4.75;;;;;16.36;100.00;98884.72;6048641;29;96308;-58
2024/02/19 11:40:32;;;;;;;;;5.80;5.00;;;;;16.05;100.00;98899.91;6048968;29;97327;-57
2024/02/19 11:43:35;;;;;;;;;4.40;4.40;;;;;15.76;100.00;98895.81;6049282;29;96312;-58
2024/02/19 11:46:39;;;;;;;;;5.00;5.00;;;;;15.57;100.00;98889.88;6049093;29;96395;-59
2024/02/19 11:49:43;;;;;;;;;4.40;4.40;;;;;15.35;100.00;98908.84;6049437;29;96390;-59
2024/02/19 11:52:47;;;;;;;;;5.00;4.25;;;;;15.24;100.00;98895.41;6049027;29;96331;-58
2024/02/19 11:56:00;;;;;;;;;5.00;4.00;;;;;15.34;100.00;98887.41;6036458;29;96386;-57
2024/02/19 11:59:03;;;;;;;;;4.00;4.00;;;;;15.53;100.00;98895.00;6022061;29;96410;-58
2024/02/19 12:02:08;;;;;;;;;4.80;4.20;;;;;15.62;100.00;98880.97;6021585;29;96520;-58
2024/02/19 12:05:12;;;;;;;;;5.00;5.00;;;;;15.87;100.00;98886.69;6021140;29;96926;-57
2024/02/19 12:08:16;;;;;;;;;5.00;5.00;;;;;15.83;100.00;98880.13;6020904;29;97600;-57
2024/02/19 12:11:20;;;;;;;;;5.00;5.00;;;;;15.60;100.00;98895.63;6020686;29;96496;-57
2024/02/19 12:14:25;;;;;;;;;4.00;4.00;;;;;15.74;100.00;98887.06;6020806;29;96505;-58
2024/02/19 12:17:28;;;;;;;;;4.00;4.00;;;;;15.60;100.00;98881.22;6021637;29;97019;-57
2024/02/19 12:20:35;;;;;;;;;4.00;4.00;;;;;15.31;100.00;98887.88;6021247;29;97600;-58
2024/02/19 12:23:42;;;;;;;;;4.60;4.00;;;;;14.98;100.00;98881.47;6021272;29;96435;-57
2024/02/19 12:26:47;;;;;;;;;3.80;3.80;;;;;14.82;100.00;98884.22;6020885;29;96231;-58
2024/02/19 12:29:52;;;;;;;;;4.00;4.00;;;;;14.61;100.00;98881.19;6020109;29;96337;-58
2024/02/19 12:32:55;;;;;;;;;5.00;4.75;;;;;14.46;100.00;98882.88;6020070;29;96390;-58
2024/02/19 12:35:59;;;;;;;;;4.00;3.00;;;;;14.44;100.00;98872.25;6018776;29;97022;-58
2024/02/19 12:39:02;;;;;;;;;5.00;5.00;;;;;14.45;100.00;98879.31;6018732;29;96412;-58
2024/02/19 12:42:08;;;;;;;;;4.00;4.00;;;;;14.30;100.00;98869.03;6018952;29;96677;-58
2024/02/19 12:45:13;;;;;;;;;4.00;4.00;;;;;14.38;100.00;98867.81;6019514;29;97098;-58
2024/02/19 12:48:17;;;;;;;;;3.40;3.40;;;;;14.48;100.00;98869.88;6019959;29;96417;-58
2024/02/19 12:51:20;;;;;;;;;3.00;3.00;;;;;14.54;100.00;98868.88;6020737;29;96427;-58
2024/02/19 12:54:24;;;;;;;;;4.00;3.00;;;;;14.38;100.00;98858.84;6020601;29;96381;-58
2024/02/19 12:57:29;;;;;;;;;4.00;4.00;;;;;14.15;100.00;98859.81;6020467;29;97666;-58
2024/02/19 13:00:32;;;;;;;;;4.20;4.00;;;;;14.25;100.00;98859.97;6002983;29;98950;-58
2024/02/19 13:03:35;;;;;;;;;4.33;4.00;;;;;14.18;100.00;98859.31;6019907;29;96546;-58
2024/02/19 13:06:40;;;;;;;;;4.60;3.60;;;;;14.04;100.00;98841.72;6037933;29;96336;-60
2024/02/19 13:09:44;;;;;;;;;5.00;4.00;;;;;14.22;100.00;98860.47;6048051;29;96328;-60
2024/02/19 13:12:50;;;;;;;;;3.00;3.00;;;;;14.07;100.00;98858.34;6047840;29;96264;-57
2024/02/19 13:15:53;;;;;;;;;5.00;4.00;;;;;14.21;100.00;98851.53;6049182;29;96477;-59
2024/02/19 13:18:57;;;;;;;;;4.25;3.50;;;;;14.24;100.00;98852.91;6048156;29;96339;-60
2024/02/19 13:22:00;;;;;;;;;3.00;3.00;;;;;14.23;100.00;98848.53;6046863;28;96358;-59
2024/02/19 13:25:05;;;;;;;;;4.00;4.00;;;;;14.23;100.00;98853.97;6031848;29;96325;-60
2024/02/19 13:28:10;;;;;;;;;4.60;4.00;;;;;14.19;100.00;98847.41;6047825;29;96447;-59
2024/02/19 13:31:13;;;;;;;;;5.00;5.00;;;;;14.19;100.00;98853.66;6048282;29;96354;-60
2024/02/19 13:34:18;;;;;;;;;5.00;4.00;;;;;14.24;100.00;98852.91;6048281;29;96434;-60
2024/02/19 13:37:21;;;;;;;;;4.00;4.00;;;;;14.28;100.00;98846.75;6047246;29;96230;-59
2024/02/19 13:40:25;;;;;;;;;4.00;4.00;;;;;14.44;100.00;98857.88;6047902;29;96335;-59
2024/02/19 13:43:30;;;;;;;;;4.25;4.00;;;;;14.43;100.00;98862.47;6047807;29;96400;-60
2024/02/19 13:46:36;;;;;;;;;4.00;4.00;;;;;14.29;100.00;98859.22;6029788;29;97485;-59
2024/02/19 13:49:39;;;;;;;;;3.20;3.00;;;;;13.84;100.00;98845.72;6048395;29;96387;-60
2024/02/19 13:52:42;;;;;;;;;3.50;3.50;;;;;14.04;100.00;98869.66;6047544;29;96402;-61
2024/02/19 13:55:47;;;;;;;;;4.00;4.00;;;;;13.98;100.00;98867.06;6031511;29;96644;-60
2024/02/19 13:58:52;;;;;;;;;6.00;5.00;;;;;13.87;100.00;98864.22;6047619;29;96538;-59
2024/02/19 14:01:56;;;;;;;;;3.00;3.00;;;;;13.78;100.00;98878.41;6047345;29;96408;-60
2024/02/19 14:04:59;;;;;;;;;3.20;3.20;;;;;13.66;100.00;98875.72;6046607;29;96319;-59